Time;durP1;ratioP1;P1;durP2;ratioP2;P2;SDS_P1;SDS_P2;PMS_P1;PMS_P2;Temp;Humidity;BMP_temperature;BMP_pressure;BME280_temperature;BME280_humidity;BME280_pressure;Samples;Min_cycle;Max_cycle;Signal;HPM_P1;HPM_P2
2022/09/21 00:00:37;;;;;;;2.42;1.23;;;6.90;99.90;;;;;;5077550;28;20036;-88
2022/09/21 00:03:04;;;;;;;2.00;1.08;;;6.90;99.90;;;;;;5044178;28;20044;-88
2022/09/21 00:05:30;;;;;;;2.20;1.20;;;6.90;99.90;;;;;;5077087;28;20097;-88
2022/09/21 00:07:59;;;;;;;2.42;1.20;;;6.90;99.90;;;;;;5094411;28;20036;-88
2022/09/21 00:10:26;;;;;;;1.58;1.17;;;6.80;99.90;;;;;;5060485;28;20044;-88
2022/09/21 00:12:52;;;;;;;1.13;0.85;;;6.80;99.90;;;;;;5060432;28;20043;-88
2022/09/21 00:15:18;;;;;;;2.03;1.15;;;6.80;99.90;;;;;;5093294;28;20040;-91
2022/09/21 00:17:46;;;;;;;2.38;1.20;;;6.80;99.90;;;;;;5060011;28;20413;-90
2022/09/21 00:20:13;;;;;;;1.90;0.90;;;6.80;99.90;;;;;;5076875;28;20040;-90
2022/09/21 00:22:39;;;;;;;2.30;1.48;;;6.70;99.90;;;;;;5076591;28;20035;-90
2022/09/21 00:25:05;;;;;;;1.98;1.05;;;6.70;99.90;;;;;;5059815;28;20040;-91
2022/09/21 00:27:31;;;;;;;2.45;1.20;;;6.70;99.90;;;;;;5059436;28;20107;-90
2022/09/21 00:30:02;;;;;;;1.75;1.13;;;6.70;99.90;;;;;;5043458;28;20472;-90
2022/09/21 00:32:30;;;;;;;1.50;0.93;;;6.70;99.90;;;;;;5076684;28;20040;-88
2022/09/21 00:34:58;;;;;;;2.33;1.35;;;6.70;99.90;;;;;;5076655;28;20040;-87
2022/09/21 00:37:24;;;;;;;1.35;1.08;;;6.70;99.90;;;;;;5076862;28;20190;-87
2022/09/21 00:39:51;;;;;;;2.35;1.08;;;6.70;99.90;;;;;;5059985;28;20151;-87
2022/09/21 00:42:33;;;;;;;6.28;1.50;;;6.70;99.90;;;;;;5076734;28;20040;-87
2022/09/21 00:44:59;;;;;;;3.10;1.92;;;6.60;99.90;;;;;;5093315;28;20056;-88
2022/09/21 00:47:31;;;;;;;1.95;1.20;;;6.60;99.90;;;;;;5043335;28;20456;-90
2022/09/21 00:49:59;;;;;;;1.42;0.90;;;6.60;99.90;;;;;;5075828;28;20040;-90
2022/09/21 00:52:30;;;;;;;1.80;1.00;;;6.60;99.90;;;;;;5076404;28;20040;-89
2022/09/21 00:55:21;;;;;;;2.10;1.23;;;6.50;99.90;;;;;;5075225;28;20070;-90
2022/09/21 00:57:53;;;;;;;1.17;0.90;;;6.50;99.90;;;;;;5066417;28;20051;-89
2022/09/21 01:00:20;;;;;;;1.20;1.05;;;6.40;99.90;;;;;;5075988;28;20036;-89
2022/09/21 01:02:46;;;;;;;2.10;1.23;;;6.40;99.90;;;;;;5076286;28;20394;-90
2022/09/21 01:05:12;;;;;;;2.53;1.00;;;6.40;99.90;;;;;;5058559;28;20366;-90
2022/09/21 01:07:43;;;;;;;1.67;1.10;;;6.40;99.90;;;;;;5088828;28;20047;-91
2022/09/21 01:10:13;;;;;;;1.75;1.00;;;6.40;99.90;;;;;;5075482;28;20035;-90
2022/09/21 01:12:41;;;;;;;2.05;1.17;;;6.40;99.90;;;;;;5075956;28;20040;-90
2022/09/21 01:15:32;;;;;;;1.80;1.08;;;6.40;99.90;;;;;;5075284;28;20052;-90
2022/09/21 01:18:25;;;;;;;1.80;1.10;;;6.40;99.90;;;;;;5074629;28;20096;-90
2022/09/21 01:21:20;;;;;;;2.40;1.40;;;6.30;99.90;;;;;;5055759;28;20048;-90
2022/09/21 01:24:16;;;;;;;1.60;0.95;;;6.30;99.90;;;;;;5059466;28;20457;-90
2022/09/21 01:26:56;;;;;;;1.65;1.10;;;6.30;99.90;;;;;;5092184;28;20036;-89
2022/09/21 01:29:32;;;;;;;1.70;1.10;;;6.30;99.90;;;;;;5075141;28;20048;-90
2022/09/21 01:32:28;;;;;;;2.88;1.40;;;6.30;99.90;;;;;;5075606;28;20074;-90
2022/09/21 01:35:09;;;;;;;2.95;1.40;;;6.20;99.90;;;;;;5075570;28;20036;-90
2022/09/21 01:37:45;;;;;;;1.73;0.98;;;6.20;99.90;;;;;;5074991;28;20093;-89
2022/09/21 01:40:22;;;;;;;1.73;0.93;;;6.20;99.90;;;;;;5075239;28;20036;-89
2022/09/21 01:42:50;;;;;;;2.60;0.98;;;6.10;99.90;;;;;;5106250;28;20451;-89
2022/09/21 01:45:23;;;;;;;1.05;0.73;;;6.10;99.90;;;;;;5088500;28;20044;-89
2022/09/21 01:47:52;;;;;;;1.00;0.80;;;6.10;99.90;;;;;;5091697;28;20037;-89
2022/09/21 01:50:19;;;;;;;2.35;1.05;;;6.10;99.90;;;;;;5042161;28;20062;-89
2022/09/21 01:52:51;;;;;;;1.50;1.02;;;6.10;99.90;;;;;;5058252;28;20043;-88
2022/09/21 01:55:31;;;;;;;2.30;1.08;;;6.10;99.90;;;;;;5075931;28;20047;-90
2022/09/21 01:58:17;;;;;;;3.03;1.35;;;6.00;99.90;;;;;;5075411;28;20086;-90
2022/09/21 02:00:47;;;;;;;1.73;0.90;;;6.10;99.90;;;;;;5074985;28;20044;-90
2022/09/21 02:03:43;;;;;;;1.40;0.80;;;6.00;99.90;;;;;;5075154;28;20286;-90
2022/09/21 02:06:11;;;;;;;1.88;1.20;;;6.00;99.90;;;;;;5070672;28;20484;-90
2022/09/21 02:08:38;;;;;;;2.35;1.25;;;7.40;99.90;;;;;;5079067;28;20214;-91
2022/09/21 02:11:05;;;;;;;2.30;1.20;;;6.00;99.90;;;;;;5062224;28;20485;-89
2022/09/21 02:13:38;;;;;;;2.30;1.15;;;6.00;99.90;;;;;;5058834;28;20071;-88
2022/09/21 02:16:07;;;;;;;2.45;1.15;;;7.40;99.90;;;;;;5076015;28;20425;-89
2022/09/21 02:19:08;;;;;;;2.10;1.40;;;7.30;99.90;;;;;;5094596;28;20071;-89
2022/09/21 02:21:42;;;;;;;2.03;1.23;;;6.10;99.90;;;;;;5079394;28;20382;-89
2022/09/21 02:24:21;;;;;;;2.97;1.02;;;6.10;99.90;;;;;;5078953;28;20051;-89
2022/09/21 02:27:24;;;;;;;1.45;1.05;;;6.00;99.90;;;;;;5078892;28;20040;-90
2022/09/21 02:30:08;;;;;;;2.55;1.02;;;6.00;99.90;;;;;;5095904;28;20044;-90
2022/09/21 02:32:50;;;;;;;1.65;1.00;;;5.90;99.90;;;;;;5092694;28;20037;-90
2022/09/21 02:35:31;;;;;;;1.20;0.88;;;5.90;99.90;;;;;;5092736;28;20076;-90
2022/09/21 02:38:09;;;;;;;1.50;1.00;;;5.80;99.90;;;;;;5059091;28;20363;-90
2022/09/21 02:40:47;;;;;;;3.95;1.13;;;5.80;99.90;;;;;;5094683;28;20037;-90
2022/09/21 02:43:29;;;;;;;2.15;0.98;;;5.80;99.90;;;;;;5078113;28;20091;-90
2022/09/21 02:46:03;;;;;;;2.88;1.00;;;5.80;99.90;;;;;;5075636;28;20052;-89
2022/09/21 02:48:45;;;;;;;1.95;1.27;;;5.80;99.90;;;;;;5078672;28;20101;-89
2022/09/21 02:51:15;;;;;;;2.53;1.38;;;5.80;99.90;;;;;;5077489;28;20130;-89
2022/09/21 02:53:43;;;;;;;1.40;0.90;;;6.30;99.90;;;;;;5096080;28;20036;-88
2022/09/21 02:56:10;;;;;;;1.73;1.10;;;5.80;99.90;;;;;;5078360;28;20071;-89
2022/09/21 02:58:46;;;;;;;2.30;1.17;;;7.10;99.90;;;;;;5091896;28;20520;-89
2022/09/21 03:01:13;;;;;;;3.33;1.38;;;6.30;99.90;;;;;;5058427;28;20474;-88
2022/09/21 03:03:40;;;;;;;2.50;1.38;;;5.80;99.90;;;;;;5042450;28;20040;-87
2022/09/21 03:06:06;;;;;;;1.40;0.93;;;5.70;99.90;;;;;;5074930;28;20044;-87
2022/09/21 03:08:31;;;;;;;2.35;1.25;;;5.70;99.90;;;;;;5086099;22;20057;-83
2022/09/21 03:10:57;;;;;;;1.67;1.10;;;5.70;99.90;;;;;;5034605;28;20103;-83
2022/09/21 03:13:23;;;;;;;1.48;0.95;;;6.30;99.90;;;;;;5033797;28;20080;-83
2022/09/21 03:15:57;;;;;;;2.03;1.10;;;5.60;99.90;;;;;;5018295;28;20068;-84
2022/09/21 03:18:23;;;;;;;2.30;1.20;;;7.10;99.90;;;;;;5002921;28;20053;-83
2022/09/21 03:20:49;;;;;;;3.03;1.15;;;5.60;99.90;;;;;;5018168;28;20053;-83
2022/09/21 03:23:14;;;;;;;2.70;1.50;;;5.60;99.90;;;;;;5001330;28;20132;-83
2022/09/21 03:25:43;;;;;;;1.92;0.90;;;6.70;99.90;;;;;;5018422;28;20077;-83
2022/09/21 03:28:09;;;;;;;1.95;1.00;;;7.00;99.90;;;;;;5034821;28;20068;-83
2022/09/21 03:30:38;;;;;;;1.23;0.80;;;6.40;99.90;;;;;;5002253;28;20506;-83
2022/09/21 03:33:04;;;;;;;1.80;1.00;;;5.50;99.90;;;;;;5017185;28;20033;-83
2022/09/21 03:35:32;;;;;;;1.92;1.10;;;5.80;99.90;;;;;;5034638;28;20037;-85
2022/09/21 03:37:58;;;;;;;4.53;1.45;;;5.60;99.90;;;;;;5034524;28;20057;-85
2022/09/21 03:40:26;;;;;;;2.88;1.30;;;5.50;99.90;;;;;;5017751;28;20389;-85
2022/09/21 03:42:52;;;;;;;2.35;0.93;;;5.90;99.90;;;;;;5033863;28;20049;-85
2022/09/21 03:45:18;;;;;;;1.90;1.20;;;5.60;99.90;;;;;;5017126;28;20495;-85
2022/09/21 03:47:44;;;;;;;1.65;1.00;;;6.10;99.90;;;;;;5034127;28;20050;-85
2022/09/21 03:50:10;;;;;;;2.90;1.65;;;5.50;99.90;;;;;;5034075;28;20041;-84
2022/09/21 03:52:37;;;;;;;0.98;0.73;;;5.50;99.90;;;;;;5033838;28;20034;-83
2022/09/21 03:55:05;;;;;;;2.20;1.20;;;5.70;99.90;;;;;;5033975;28;20038;-83
2022/09/21 03:57:35;;;;;;;1.70;1.08;;;5.50;99.90;;;;;;5034004;28;20492;-83
2022/09/21 04:00:03;;;;;;;3.03;1.48;;;5.40;99.90;;;;;;5015901;28;20033;-83
2022/09/21 04:02:30;;;;;;;0.93;0.85;;;5.40;99.90;;;;;;5033826;28;20561;-83
2022/09/21 04:04:56;;;;;;;1.75;1.17;;;5.40;99.90;;;;;;5033184;28;20043;-83
2022/09/21 04:07:22;;;;;;;1.33;0.75;;;5.40;99.90;;;;;;5033520;28;20403;-87
2022/09/21 04:09:47;;;;;;;2.35;1.38;;;5.50;99.90;;;;;;5017049;28;20045;-87
2022/09/21 04:12:13;;;;;;;1.13;0.82;;;5.30;99.90;;;;;;5017261;28;20072;-87
2022/09/21 04:14:39;;;;;;;1.50;0.98;;;5.30;99.90;;;;;;5016697;28;20039;-87
2022/09/21 04:17:05;;;;;;;3.63;1.20;;;5.30;99.90;;;;;;5033600;28;20376;-87
2022/09/21 04:19:30;;;;;;;1.75;0.90;;;5.30;99.90;;;;;;5016924;28;20037;-87
2022/09/21 04:21:56;;;;;;;2.97;0.88;;;5.50;99.90;;;;;;5033490;28;20042;-87
2022/09/21 04:24:22;;;;;;;1.25;1.05;;;5.30;99.90;;;;;;5018295;28;20048;-85
2022/09/21 04:26:48;;;;;;;2.28;0.90;;;5.30;99.90;;;;;;5032751;28;20037;-85
2022/09/21 04:29:15;;;;;;;1.55;0.85;;;5.60;99.90;;;;;;5015776;28;20490;-85
2022/09/21 04:31:41;;;;;;;1.65;1.02;;;5.20;99.90;;;;;;5033409;28;20033;-85
2022/09/21 04:34:10;;;;;;;1.85;0.98;;;5.10;99.90;;;;;;5033139;28;20060;-85
2022/09/21 04:36:36;;;;;;;2.22;0.98;;;5.00;99.90;;;;;;5032941;28;20124;-85
2022/09/21 04:39:03;;;;;;;1.45;1.05;;;5.20;99.90;;;;;;5016129;28;20146;-85
2022/09/21 04:41:29;;;;;;;1.55;1.00;;;5.20;99.90;;;;;;5016563;28;20087;-83
2022/09/21 04:43:54;;;;;;;1.20;0.77;;;5.00;99.90;;;;;;5016588;28;20045;-83
2022/09/21 04:46:20;;;;;;;1.20;0.80;;;5.10;99.90;;;;;;5032694;28;20119;-83
2022/09/21 04:48:47;;;;;;;3.47;1.00;;;5.40;99.90;;;;;;5010482;28;20096;-83
2022/09/21 04:51:14;;;;;;;2.03;1.02;;;5.10;99.90;;;;;;5004612;28;20509;-83
2022/09/21 04:53:41;;;;;;;1.63;1.08;;;5.20;99.90;;;;;;5032715;28;20042;-83
2022/09/21 04:56:08;;;;;;;1.63;0.98;;;5.10;99.90;;;;;;5032741;28;20042;-83
2022/09/21 04:58:34;;;;;;;1.40;0.93;;;6.10;99.90;;;;;;5032934;28;20045;-85
2022/09/21 05:01:00;;;;;;;2.10;0.80;;;5.10;99.90;;;;;;5016155;28;20049;-85
2022/09/21 05:03:26;;;;;;;2.13;1.20;;;5.10;99.90;;;;;;5032668;28;20045;-85
2022/09/21 05:05:56;;;;;;;3.53;1.35;;;5.10;99.90;;;;;;5016443;28;20096;-85
2022/09/21 05:11:11;;;;;;;1.90;1.30;;;5.10;99.90;;;;;;5017853;28;20496;-85
2022/09/21 05:13:41;;;;;;;1.92;1.40;;;5.20;99.90;;;;;;5016193;28;20124;-85
2022/09/21 05:16:07;;;;;;;1.80;1.20;;;5.00;99.90;;;;;;5032696;28;20153;-85
2022/09/21 05:18:33;;;;;;;3.03;1.40;;;5.10;99.90;;;;;;5014586;28;20047;-85
2022/09/21 05:21:00;;;;;;;2.58;1.33;;;5.10;99.90;;;;;;5015919;28;20132;-85
2022/09/21 05:23:28;;;;;;;3.42;1.42;;;5.10;99.90;;;;;;5032398;28;20041;-86
2022/09/21 05:25:54;;;;;;;1.90;1.17;;;5.10;99.90;;;;;;5016061;28;20049;-85
2022/09/21 05:28:21;;;;;;;1.33;1.00;;;6.60;99.90;;;;;;5031888;28;20044;-85
2022/09/21 05:31:09;;;;;;;2.30;1.20;;;5.10;99.90;;;;;;5015802;28;20468;-85
2022/09/21 05:33:38;;;;;;;3.97;1.40;;;5.10;99.90;;;;;;5031763;28;20407;-85
2022/09/21 05:36:39;;;;;;;2.22;1.20;;;5.10;99.90;;;;;;5015954;28;20037;-85
2022/09/21 05:39:06;;;;;;;1.27;0.98;;;5.20;99.90;;;;;;5020962;28;20104;-85
2022/09/21 05:41:32;;;;;;;1.98;1.33;;;5.20;99.90;;;;;;5015684;28;20049;-85
2022/09/21 05:43:59;;;;;;;3.45;1.35;;;5.20;99.90;;;;;;5015997;28;20128;-85
2022/09/21 05:46:38;;;;;;;1.65;1.15;;;5.20;99.90;;;;;;5015008;28;20466;-85
2022/09/21 05:49:48;;;;;;;2.85;1.70;;;5.30;99.90;;;;;;5032094;28;20044;-85
2022/09/21 05:52:17;;;;;;;4.22;1.50;;;5.40;99.90;;;;;;5042595;28;20040;-85
2022/09/21 05:54:58;;;;;;;3.40;1.50;;;5.50;99.90;;;;;;5022845;28;20040;-85
2022/09/21 05:57:38;;;;;;;3.22;1.33;;;5.50;99.90;;;;;;5015266;28;20065;-85
2022/09/21 06:00:19;;;;;;;1.95;1.17;;;5.60;99.90;;;;;;5014703;28;20380;-85
2022/09/21 06:03:15;;;;;;;2.13;1.23;;;5.70;99.90;;;;;;5031125;28;20037;-85
2022/09/21 06:05:42;;;;;;;2.17;1.30;;;5.80;99.90;;;;;;5044132;28;20041;-88
2022/09/21 06:08:08;;;;;;;3.20;1.30;;;5.90;99.90;;;;;;5012020;28;20068;-88
2022/09/21 06:10:34;;;;;;;2.50;1.40;;;6.00;99.90;;;;;;5013922;28;20042;-88
2022/09/21 06:13:00;;;;;;;4.45;1.35;;;6.10;99.90;;;;;;5017127;28;20395;-88
2022/09/21 06:15:26;;;;;;;2.55;1.70;;;6.20;99.90;;;;;;4997400;28;20041;-88
2022/09/21 06:17:52;;;;;;;3.63;1.95;;;7.30;99.90;;;;;;4998038;28;20042;-88
2022/09/21 06:20:17;;;;;;;3.97;2.47;;;8.60;99.90;;;;;;5014186;28;20037;-86
2022/09/21 06:22:43;;;;;;;3.53;1.88;;;10.10;99.90;;;;;;5015125;28;20491;-86
2022/09/21 06:25:09;;;;;;;3.42;1.85;;;11.50;99.90;;;;;;5014912;28;20041;-86
2022/09/21 06:27:35;;;;;;;3.25;1.98;;;12.70;99.90;;;;;;4998740;28;20074;-86
2022/09/21 06:30:01;;;;;;;2.80;1.70;;;13.90;99.90;;;;;;5031418;28;20029;-86
2022/09/21 06:32:26;;;;;;;7.55;2.00;;;14.90;99.90;;;;;;4995492;28;20117;-86
2022/09/21 06:34:52;;;;;;;3.80;1.95;;;15.70;99.90;;;;;;5009712;28;20404;-86
2022/09/21 06:37:18;;;;;;;3.17;1.60;;;16.50;99.90;;;;;;5031652;28;20111;-86
2022/09/21 06:39:44;;;;;;;2.63;1.70;;;17.10;99.90;;;;;;5031385;28;20068;-86
2022/09/21 06:42:10;;;;;;;4.10;1.80;;;17.70;99.90;;;;;;5014780;28;20038;-86
2022/09/21 06:44:35;;;;;;;3.30;1.50;;;18.30;99.90;;;;;;4997629;28;20107;-86
2022/09/21 06:47:01;;;;;;;2.97;1.90;;;18.90;99.90;;;;;;5019262;28;20041;-86
2022/09/21 06:49:27;;;;;;;3.90;2.17;;;19.60;99.60;;;;;;5014438;28;20042;-86
2022/09/21 06:51:54;;;;;;;3.05;1.38;;;20.40;97.40;;;;;;5031661;28;20435;-86
2022/09/21 06:54:20;;;;;;;3.83;2.00;;;20.60;97.10;;;;;;5017105;28;20037;-84
2022/09/21 06:56:46;;;;;;;3.05;1.70;;;21.20;96.80;;;;;;4995584;28;20038;-84
2022/09/21 06:59:14;;;;;;;2.45;1.60;;;22.00;95.30;;;;;;5033540;28;20037;-82
2022/09/21 07:01:40;;;;;;;2.25;1.52;;;22.50;94.20;;;;;;5034251;28;20427;-82
2022/09/21 07:04:08;;;;;;;2.78;1.50;;;22.90;93.60;;;;;;5017473;28;20037;-82
2022/09/21 07:06:34;;;;;;;2.15;1.27;;;23.20;93.40;;;;;;5034731;28;20045;-82
2022/09/21 07:09:01;;;;;;;2.40;1.42;;;23.80;92.70;;;;;;5032557;28;20137;-82
2022/09/21 07:11:27;;;;;;;4.47;1.90;;;24.40;92.20;;;;;;4998216;28;20095;-83
2022/09/21 07:13:53;;;;;;;3.03;1.55;;;24.70;91.90;;;;;;5001376;28;20123;-80
2022/09/21 07:16:20;;;;;;;4.35;1.90;;;25.00;91.20;;;;;;5017056;28;20056;-80
2022/09/21 07:18:47;;;;;;;2.58;1.58;;;25.20;90.70;;;;;;5017442;28;20045;-80
2022/09/21 07:21:13;;;;;;;4.32;1.48;;;25.80;90.50;;;;;;5034020;28;20099;-79
2022/09/21 07:23:39;;;;;;;2.40;1.15;;;26.20;88.30;;;;;;5016861;28;20041;-79
2022/09/21 07:26:12;;;;;;;7.00;1.35;;;25.20;88.00;;;;;;5031637;28;20041;-79
2022/09/21 07:28:38;;;;;;;5.35;1.42;;;25.10;90.00;;;;;;5033402;28;20041;-80
2022/09/21 07:31:07;;;;;;;2.20;1.20;;;25.20;89.50;;;;;;5017684;28;20042;-80
2022/09/21 07:33:34;;;;;;;1.60;0.68;;;25.80;88.00;;;;;;5018145;28;20042;-80
2022/09/21 07:36:02;;;;;;;2.13;1.20;;;26.20;87.20;;;;;;5051603;28;20040;-80
2022/09/21 07:38:28;;;;;;;2.28;0.98;;;26.50;85.20;;;;;;5033727;28;20095;-80
2022/09/21 07:40:54;;;;;;;1.35;0.88;;;27.00;85.10;;;;;;5017811;28;20069;-81
2022/09/21 07:43:20;;;;;;;4.53;0.95;;;27.30;84.60;;;;;;5017347;28;20034;-81
2022/09/21 07:45:55;;;;;;;3.55;1.08;;;27.70;83.90;;;;;;5013559;28;20041;-80
2022/09/21 07:48:24;;;;;;;1.93;0.90;;;28.10;83.30;;;;;;5018253;28;20541;-80
2022/09/21 07:50:49;;;;;;;3.40;1.17;;;28.70;82.40;;;;;;5031170;28;20797;-81
2022/09/21 07:53:16;;;;;;;2.70;1.30;;;28.90;79.00;;;;;;5025286;28;20067;-81
2022/09/21 07:55:42;;;;;;;2.63;1.02;;;29.10;79.20;;;;;;5034479;28;20071;-81
2022/09/21 08:00:53;;;;;;;1.45;0.60;;;29.30;79.50;;;;;;5034157;28;20475;-81
2022/09/21 08:03:21;;;;;;;3.90;1.17;;;29.60;78.40;;;;;;5034190;28;20052;-81
2022/09/21 08:05:47;;;;;;;2.67;0.77;;;;;;;;;;5017600;28;20124;-81
2022/09/21 08:08:14;;;;;;;1.27;0.60;;;30.10;77.50;;;;;;5021655;28;20096;-81
2022/09/21 08:10:40;;;;;;;2.72;0.70;;;30.00;77.50;;;;;;5014089;28;20072;-81
2022/09/21 08:13:05;;;;;;;3.13;0.57;;;30.00;74.60;;;;;;5014440;28;20041;-81
2022/09/21 08:15:31;;;;;;;0.82;0.70;;;29.50;74.00;;;;;;4998110;28;20050;-81
2022/09/21 08:17:57;;;;;;;4.38;0.77;;;28.90;75.00;;;;;;5014253;28;20038;-81
2022/09/21 08:20:23;;;;;;;0.82;0.22;;;28.90;76.20;;;;;;4997615;28;20037;-81
2022/09/21 08:22:52;;;;;;;2.72;1.00;;;29.10;76.70;;;;;;5014085;28;20038;-81
2022/09/21 08:25:18;;;;;;;0.60;0.50;;;29.80;77.00;;;;;;5013616;28;20080;-81
2022/09/21 08:27:43;;;;;;;1.77;0.50;;;30.10;75.40;;;;;;5014182;28;20053;-81
2022/09/21 08:30:12;;;;;;;2.92;0.55;;;;;;;;;;5014154;28;20037;-81
2022/09/21 08:32:38;;;;;;;2.55;0.70;;;;;;;;;;5013603;28;20485;-81
2022/09/21 08:35:05;;;;;;;2.10;0.90;;;;;;;;;;5012926;28;20121;-80
2022/09/21 08:37:32;;;;;;;1.08;0.38;;;;;;;;;;5013944;28;20042;-80
2022/09/21 08:40:01;;;;;;;0.63;0.32;;;;;;;;;;4997035;28;20037;-80
2022/09/21 08:42:27;;;;;;;4.65;0.60;;;;;;;;;;5012326;28;20042;-80
2022/09/21 08:44:55;;;;;;;0.80;0.30;;;;;;;;;;5013003;28;20077;-80
2022/09/21 08:47:39;;;;;;;0.40;0.38;;;31.50;67.40;;;;;;5013474;28;20173;-80
2022/09/21 08:50:28;;;;;;;2.15;0.88;;;31.40;66.90;;;;;;5008097;28;20092;-81
2022/09/21 08:53:11;;;;;;;2.60;0.73;;;31.30;67.40;;;;;;5009257;28;20049;-81
2022/09/21 08:55:37;;;;;;;1.30;0.75;;;30.80;66.90;;;;;;5012808;28;20123;-82
2022/09/21 08:58:02;;;;;;;1.70;0.50;;;30.20;68.70;;;;;;5013773;28;20089;-81
2022/09/21 09:00:36;;;;;;;1.35;0.55;;;30.20;69.10;;;;;;4995290;28;20641;-82
2022/09/21 09:03:02;;;;;;;2.00;0.65;;;30.10;67.20;;;;;;5012179;28;20042;-82
2022/09/21 09:05:27;;;;;;;0.80;0.52;;;30.20;66.90;;;;;;5011760;28;20049;-84
2022/09/21 09:08:15;;;;;;;1.20;0.40;;;30.50;66.80;;;;;;5022873;28;20406;-81
2022/09/21 09:11:04;;;;;;;2.50;0.43;;;29.80;66.40;;;;;;5061630;28;20050;-80
2022/09/21 09:13:32;;;;;;;2.45;0.40;;;30.00;68.00;;;;;;5032857;28;20052;-80
2022/09/21 09:15:58;;;;;;;2.20;0.60;;;30.80;68.20;;;;;;5015897;28;20106;-80
2022/09/21 09:18:46;;;;;;;1.02;0.50;;;31.60;67.90;;;;;;5016392;28;20132;-80
2022/09/21 09:21:18;;;;;;;1.13;0.40;;;31.60;65.70;;;;;;5016579;28;20042;-80
2022/09/21 09:23:59;;;;;;;2.15;0.55;;;30.30;65.00;;;;;;5029373;28;20121;-82
2022/09/21 09:27:16;;;;;;;0.40;0.40;;;28.60;69.30;;;;;;5030964;28;20116;-82
2022/09/21 09:30:03;;;;;;;2.15;0.65;;;27.50;67.80;;;;;;5020990;28;20049;-82
2022/09/21 09:32:38;;;;;;;2.15;0.60;;;27.40;70.80;;;;;;5016439;28;20033;-82
2022/09/21 09:35:15;;;;;;;1.58;0.30;;;28.20;69.20;;;;;;5031935;28;20498;-82
2022/09/21 09:37:43;;;;;;;3.50;0.55;;;28.00;69.40;;;;;;5018483;23;20046;-84
2022/09/21 09:40:13;;;;;;;2.70;0.65;;;27.30;69.80;;;;;;5024748;28;20038;-83
2022/09/21 09:43:09;;;;;;;1.63;0.30;;;27.70;70.50;;;;;;4992900;28;20477;-83
2022/09/21 09:45:40;;;;;;;1.50;0.57;;;28.60;70.50;;;;;;5008602;28;20121;-83
2022/09/21 09:48:15;;;;;;;2.55;0.68;;;29.90;68.50;;;;;;4991971;28;20042;-83
2022/09/21 09:50:42;;;;;;;0.95;0.30;;;31.50;67.50;;;;;;5021244;28;20034;-83
2022/09/21 09:53:17;;;;;;;1.00;0.43;;;31.70;66.50;;;;;;5025390;28;20053;-83
2022/09/21 09:55:47;;;;;;;1.05;0.30;;;32.50;65.00;;;;;;4992427;28;20090;-83
2022/09/21 09:58:20;;;;;;;0.40;0.22;;;33.00;63.50;;;;;;5025509;28;20081;-85
2022/09/21 10:00:54;;;;;;;4.65;0.85;;;32.70;62.40;;;;;;5008482;28;20074;-85
2022/09/21 10:03:22;;;;;;;2.03;0.30;;;32.80;63.80;;;;;;4992553;28;20558;-85
2022/09/21 10:05:48;;;;;;;0.75;0.30;;;32.80;60.70;;;;;;4992097;28;20504;-85
2022/09/21 10:08:43;;;;;;;1.45;0.35;;;32.70;62.20;;;;;;4992510;28;20084;-85
2022/09/21 10:11:11;;;;;;;1.27;0.45;;;33.00;61.20;;;;;;4975159;28;20042;-85
2022/09/21 10:13:40;;;;;;;2.28;0.40;;;33.00;62.10;;;;;;5025330;28;20093;-85
2022/09/21 10:16:18;;;;;;;1.67;0.93;;;33.10;61.30;;;;;;4991344;28;20428;-86
2022/09/21 10:18:55;;;;;;;1.40;0.30;;;32.50;60.90;;;;;;4993174;28;20974;-85
2022/09/21 10:21:25;;;;;;;1.80;0.57;;;32.30;60.20;;;;;;4994470;28;20054;-85
2022/09/21 10:24:04;;;;;;;0.68;0.25;;;32.40;62.00;;;;;;5009693;28;20400;-84
2022/09/21 10:27:04;;;;;;;2.10;0.40;;;32.90;59.00;;;;;;4978917;28;20052;-85
2022/09/21 10:29:46;;;;;;;1.48;0.28;;;32.80;60.50;;;;;;5013046;28;20052;-84
2022/09/21 10:32:12;;;;;;;0.55;0.30;;;33.00;61.90;;;;;;4993138;28;20394;-83
2022/09/21 10:34:58;;;;;;;0.70;0.35;;;32.60;60.10;;;;;;4979920;28;20035;-83
2022/09/21 10:37:40;;;;;;;0.75;0.30;;;32.40;62.10;;;;;;5011739;28;20062;-84
2022/09/21 10:40:22;;;;;;;0.70;0.32;;;32.50;61.20;;;;;;4995293;28;20145;-83
2022/09/21 10:42:50;;;;;;;1.10;0.50;;;32.50;60.80;;;;;;4980014;28;20103;-83
2022/09/21 10:45:31;;;;;;;1.48;0.73;;;30.30;58.90;;;;;;4998506;28;20131;-83
2022/09/21 10:47:57;;;;;;;1.98;0.30;;;32.00;62.40;;;;;;4965195;28;20385;-84
2022/09/21 10:50:33;;;;;;;0.43;0.38;;;32.30;60.70;;;;;;4995845;28;20061;-84
2022/09/21 10:53:08;;;;;;;0.93;0.47;;;32.60;61.20;;;;;;4979562;28;20054;-84
2022/09/21 10:55:43;;;;;;;1.17;0.50;;;32.50;60.70;;;;;;4979663;28;20101;-84
2022/09/21 10:58:10;;;;;;;;;;;32.90;58.80;;;;;;4994588;28;20428;-85
2022/09/21 11:00:50;;;;;;;2.10;0.73;;;32.50;59.90;;;;;;4994741;28;19939;-84
2022/09/21 11:03:43;;;;;;;2.20;0.75;;;32.60;61.00;;;;;;4994239;28;20104;-85
2022/09/21 11:06:20;;;;;;;0.47;0.22;;;32.60;57.40;;;;;;4995470;28;20083;-84
2022/09/21 11:09:27;;;;;;;1.05;0.57;;;32.20;59.40;;;;;;4979529;28;20476;-83
2022/09/21 11:12:16;;;;;;;1.80;0.50;;;32.10;58.50;;;;;;4994894;28;20061;-83
2022/09/21 11:14:55;;;;;;;0.70;0.45;;;30.40;60.00;;;;;;4976691;28;20042;-83
2022/09/21 11:17:30;;;;;;;2.50;0.80;;;29.10;61.80;;;;;;4979395;28;20129;-83
2022/09/21 11:20:03;;;;;;;1.43;0.50;;;27.80;62.70;;;;;;5011128;28;20046;-83
2022/09/21 11:22:58;;;;;;;1.23;0.57;;;26.60;63.60;;;;;;4995019;28;20046;-83
2022/09/21 11:25:42;;;;;;;1.45;0.57;;;25.40;66.00;;;;;;4978781;28;20505;-83
2022/09/21 11:28:24;;;;;;;0.70;0.40;;;24.60;67.90;;;;;;4995156;28;20114;-83
2022/09/21 11:31:24;;;;;;;1.75;0.40;;;24.50;67.80;;;;;;4978818;28;20101;-83
2022/09/21 11:34:09;;;;;;;0.93;0.40;;;25.00;68.50;;;;;;4994959;28;20035;-83
2022/09/21 11:36:43;;;;;;;1.45;0.75;;;26.20;67.90;;;;;;5027236;28;20054;-83
2022/09/21 11:39:45;;;;;;;2.30;0.57;;;26.80;67.30;;;;;;4981504;28;20590;-85
2022/09/21 11:42:45;;;;;;;0.52;0.43;;;27.00;64.80;;;;;;4993808;28;20054;-85
2022/09/21 11:45:38;;;;;;;1.00;0.28;;;27.50;65.60;;;;;;5015386;28;20073;-85
2022/09/21 11:48:25;;;;;;;0.63;0.60;;;28.00;64.40;;;;;;4984120;28;20403;-85
2022/09/21 11:51:14;;;;;;;1.27;0.57;;;28.80;63.40;;;;;;4998149;28;20056;-85
2022/09/21 11:54:14;;;;;;;1.02;0.68;;;29.20;64.20;;;;;;4981813;28;20124;-84
2022/09/21 11:56:54;;;;;;;2.20;0.32;;;29.50;63.00;;;;;;4979838;28;20049;-84
2022/09/21 11:59:29;;;;;;;2.42;0.40;;;29.70;62.50;;;;;;4981502;28;20042;-84
2022/09/21 12:02:18;;;;;;;2.90;0.32;;;29.80;62.60;;;;;;4994772;28;20121;-84
2022/09/21 12:05:01;;;;;;;0.82;0.25;;;29.50;63.80;;;;;;4969528;28;20101;-84
2022/09/21 12:08:05;;;;;;;2.78;0.70;;;29.10;63.10;;;;;;4987272;28;20038;-84
2022/09/21 12:14:41;;;;;;;0.90;0.57;;;28.90;63.80;;;;;;5004275;28;20045;-84
2022/09/21 12:17:32;;;;;;;1.08;0.30;;;28.90;61.30;;;;;;4997406;28;20050;-84
2022/09/21 12:20:36;;;;;;;2.78;0.73;;;28.90;63.20;;;;;;4996915;28;20542;-84
2022/09/21 12:23:59;;;;;;;0.80;0.52;;;28.90;61.30;;;;;;4995776;28;20455;-83
2022/09/21 12:31:00;;;;;;;;;;;;;;;;;;;;;
2022/09/21 12:34:10;;;;;;;0.85;0.50;;;28.40;64.80;;;;;;5010890;28;20065;-85
2022/09/21 12:38:15;;;;;;;;;;;;;;;;;;;;;
2022/09/21 12:45:43;;;;;;;1.80;0.35;;;27.60;62.50;;;;;;4934840;29;20071;-84
2022/09/21 12:48:44;;;;;;;0.95;0.45;;;26.90;65.50;;;;;;4887564;29;20053;-84
2022/09/21 12:51:35;;;;;;;0.55;0.30;;;26.90;65.30;;;;;;4867517;29;20044;-84
2022/09/21 12:54:27;;;;;;;1.33;0.28;;;27.00;64.00;;;;;;4940267;28;20050;-83
2022/09/21 12:57:50;;;;;;;1.75;0.45;;;27.10;64.10;;;;;;4973541;28;20069;-83
2022/09/21 13:00:25;;;;;;;1.70;0.73;;;27.00;65.70;;;;;;4903981;28;20077;-84
2022/09/21 13:03:06;;;;;;;0.43;0.30;;;27.10;65.30;;;;;;4954499;28;20153;-84
2022/09/21 13:06:05;;;;;;;0.85;0.28;;;27.10;65.10;;;;;;4940184;28;20046;-84
2022/09/21 13:08:53;;;;;;;0.95;0.52;;;26.90;66.60;;;;;;4969942;28;20555;-84
2022/09/21 13:11:22;;;;;;;1.85;0.50;;;26.40;63.40;;;;;;4961807;28;20237;-83
2022/09/21 13:13:55;;;;;;;1.23;0.50;;;26.40;62.70;;;;;;4993157;28;20078;-83
2022/09/21 13:16:37;;;;;;;0.75;0.20;;;26.40;64.80;;;;;;4993410;28;20065;-83
2022/09/21 13:19:20;;;;;;;2.65;0.85;;;26.50;66.80;;;;;;4976795;28;20560;-83
2022/09/21 13:22:06;;;;;;;1.13;0.68;;;26.60;65.00;;;;;;5006723;28;20057;-84
2022/09/21 13:24:32;;;;;;;1.55;0.85;;;26.40;65.90;;;;;;4991669;28;20047;-85
2022/09/21 13:27:03;;;;;;;0.88;0.43;;;26.20;65.80;;;;;;4960686;28;20093;-85
2022/09/21 13:29:35;;;;;;;0.45;0.20;;;26.40;66.10;;;;;;4977142;28;20038;-85
2022/09/21 13:32:03;;;;;;;1.00;0.57;;;26.30;66.20;;;;;;4985391;28;20081;-85
2022/09/21 13:34:36;;;;;;;1.63;0.38;;;26.40;66.10;;;;;;5005348;28;20481;-84
2022/09/21 13:37:13;;;;;;;0.82;0.52;;;26.50;66.00;;;;;;4977442;28;20046;-84
2022/09/21 13:40:01;;;;;;;0.63;0.38;;;26.30;65.00;;;;;;4979474;28;20049;-84
2022/09/21 13:42:36;;;;;;;0.20;0.20;;;25.80;65.80;;;;;;4995279;28;20415;-84
2022/09/21 13:45:13;;;;;;;2.72;0.55;;;25.40;64.90;;;;;;4995544;28;20072;-85
2022/09/21 13:47:51;;;;;;;3.63;1.05;;;25.00;65.90;;;;;;4996269;28;20104;-85
2022/09/21 13:50:23;;;;;;;1.35;0.22;;;24.70;65.10;;;;;;4979318;28;20034;-85
2022/09/21 13:52:57;;;;;;;2.17;0.45;;;24.30;66.20;;;;;;4995724;28;20507;-84